AirNav   TITAN Aviation Fuels
 
 1174 users online  

0ND0 Gilbertson Field Airport
Flora, North Dakota, USA

GOING TO FLORA?


FAA INFORMATION EFFECTIVE 01 DECEMBER 2022

Location

FAA Identifier: 0ND0
Lat/Long: 47-55-45.0170N 099-24-01.4750W
47-55.750283N 099-24.024583W
47.9291714,-99.4004097
(estimated)
Elevation: 1550 ft. / 472 m (estimated)
Variation: 08E (1985)
From city: 2 miles SE of FLORA, ND
Time zone: UTC -6 (UTC -5 during Daylight Saving Time)
Zip code: 58357

Airport Operations

Airport use: Private use. Permission required prior to landing
Activation date: 10/1949
Control tower: no
ARTCC: MINNEAPOLIS CENTER
FSS: GRAND FORKS FLIGHT SERVICE STATION
Attendance: IREG
Wind indicator: yes
Segmented circle: no

Nearby radio navigation aids

VOR radial/distance  VOR name  Freq  Var
DVLr233/22.5DEVILS LAKE VOR/DME114.7507E

Airport Services

Airframe service: NONE
Powerplant service: NONE

Runway Information

Runway 17/35

Dimensions: 2600 x 50 ft. / 792 x 15 m
Surface: turf
RUNWAY 17  RUNWAY 35
Traffic pattern: leftleft
Obstructions: 35 ft. pline, 2640 ft. from runwaynone

Airport Ownership and Management from official FAA records

Ownership: Privately-owned
Owner: HARLEY GILBERTSON
603 18TH ST NW
JAMESTOWN, ND 58401
Phone 701-438-2613
701-952-5088
Manager: HARLEY GILBERTSON
603 18TH ST NW
JAMESTOWN, ND 58401
Phone 701-438-2613

Additional Remarks

SKIS ONLY WINTER MONTHS.
USE CAUTION, DRAG FIELD FIRST
FOR CD CTC MINNEAPOLIS ARTCC AT 651-463-5588.

Instrument Procedures

There are no published instrument procedures at 0ND0.

Some nearby airports with instrument procedures:

KDVL - Devils Lake Regional Airport (23 nm NE)
5H4 - Harvey Municipal Airport (23 nm W)
46D - Carrington Municipal Airport (30 nm S)
9D7 - Cando Municipal Airport (34 nm N)
KRUG - Rugby Municipal Airport (37 nm NW)
 
Loc | Ops | Rwys | IFR | FBO | Links
Com | Nav | Svcs | Stats | Notes

Bismarck Aero Center
AirBoss

 
Area around 0ND0 (Gilbertson Field Airport)
 
Road maps at: MapQuest Bing Google
 
Aerial photo
No photo
 
Sectional chart

 
Airport distance calculator
Flying to Gilbertson Field Airport? Find the distance to fly.

From to 0ND0

Sunrise and sunset
Times for 03-Dec-2022
 Local
(UTC-6)
 Zulu
(UTC)
Morning civil twilight07:3413:34
Sunrise08:1014:10
Sunset16:4522:45
Evening civil twilight17:2123:21

Current date and time
Zulu (UTC)  04-Dec-2022 01:48:29
Local (UTC-6)  03-Dec-2022 19:48:29
 
METAR
KDVL 
22nm NE 
040056Z AUTO 23007KT 10SM CLR M14/M17 A3010 RMK AO2 SLP249 T11391172 FZRANO
K5H4 
23nm W 
040135Z AUTO 23006KT 10SM CLR M17/M17 A3009 RMK AO2
K46D 
30nm S 
040135Z AUTO 25005KT 10SM CLR M15/M18 A3011 RMK AO2
K9D7 
34nm N 
040135Z AUTO 22010KT 10SM CLR M18/M20 A3008 RMK AO2 TSNO
KRUG 
37nm NW 
040135Z AUTO 22010KT 10SM CLR M16/M20 A3005 RMK AO2
TAF
KDVL 
22nm NE 
031748Z 0318/0418 25013KT P6SM OVC040 TEMPO 0318/0321 1SM -SN OVC021 FM032100 23012KT P6SM FEW250 FM040700 27015KT P6SM FEW250 FM041300 25014KT P6SM SKC WS020/28040KT
NOTAMs
Click for the latest NOTAMs
NOTAMs are issued by the DoD/FAA and will open in a separate window not controlled by AirNav.

 

 
 

Would you like to see your business listed on this page?

 If your business provides an interesting product or service to pilots, flight crews, aircraft, or users of the Gilbertson Field Airport, you should consider listing it here.  To start the listing process, click on the button below
 
Add a business
 

Other Pages about Gilbertson Field Airport

Update a link
 
Copyright © AirNav, LLC. All rights reserved. Privacy Policy  Contact